createdAt,value
2018-12-29T00:00:02.290Z,1.05
2018-12-29T00:01:02.074Z,1.08
2018-12-29T00:02:02.254Z,1.07
2018-12-29T00:03:02.038Z,1.08
2018-12-29T00:04:02.075Z,1.08
2018-12-29T00:05:01.814Z,1.07
2018-12-29T00:06:02.192Z,1.09
2018-12-29T00:07:02.058Z,1.09
2018-12-29T00:08:01.871Z,1.07
2018-12-29T00:09:02.288Z,1.08
2018-12-29T00:10:02.205Z,1.09
2018-12-29T00:11:01.981Z,1.08
2018-12-29T00:12:01.775Z,1.09
2018-12-29T00:13:01.936Z,1.09
2018-12-29T00:14:01.861Z,1.12
2018-12-29T00:15:02.059Z,1.13
2018-12-29T00:16:02.314Z,1.08
2018-12-29T00:17:02.614Z,1.13
2018-12-29T00:18:01.817Z,1.11
2018-12-29T00:19:01.868Z,1.15
2018-12-29T00:20:01.987Z,1.12
2018-12-29T00:21:01.819Z,1.14
2018-12-29T00:22:01.812Z,1.14
2018-12-29T00:23:01.996Z,1.13
2018-12-29T00:24:01.784Z,1.14
2018-12-29T00:25:02.191Z,1.11
2018-12-29T00:26:02.163Z,1.11
2018-12-29T00:27:02.278Z,1.05
2018-12-29T00:28:01.796Z,1.08
2018-12-29T00:29:01.895Z,1.12
2018-12-29T00:30:01.941Z,1.1
2018-12-29T00:31:01.896Z,1.07
2018-12-29T00:32:01.783Z,1.05
2018-12-29T00:33:01.901Z,1.02
2018-12-29T00:34:01.788Z,1.06
2018-12-29T00:35:01.828Z,0.99
2018-12-29T00:36:01.846Z,0.95
2018-12-29T00:37:02.384Z,0.93
2018-12-29T00:38:02.236Z,0.93
2018-12-29T00:39:01.745Z,0.96
2018-12-29T00:40:01.838Z,0.94
2018-12-29T00:41:01.881Z,0.95
2018-12-29T00:42:01.785Z,0.92
2018-12-29T00:43:01.760Z,0.89
2018-12-29T00:44:02.094Z,0.93
2018-12-29T00:45:03.366Z,0.95
2018-12-29T00:46:01.862Z,0.96
2018-12-29T00:47:01.837Z,0.94
2018-12-29T00:48:01.739Z,0.95
2018-12-29T00:49:02.004Z,0.96
2018-12-29T00:50:01.799Z,0.98
2018-12-29T00:51:01.836Z,1.01
2018-12-29T00:52:01.740Z,1
2018-12-29T00:53:01.844Z,1.03
2018-12-29T00:54:01.733Z,1.07
2018-12-29T00:55:02.210Z,1.07
2018-12-29T00:56:01.683Z,1.07
2018-12-29T00:57:01.967Z,1.08
2018-12-29T00:58:01.729Z,1.08
2018-12-29T00:59:01.812Z,1.07
2018-12-29T01:00:02.276Z,1.08
2018-12-29T01:01:01.606Z,1.08
2018-12-29T01:02:02.781Z,1.07
2018-12-29T01:03:01.801Z,1.07
2018-12-29T01:04:01.878Z,1.08
2018-12-29T01:05:02.022Z,1.07
2018-12-29T01:06:01.948Z,1.07
2018-12-29T01:07:02.363Z,1.06
2018-12-29T01:08:02.400Z,1.08
2018-12-29T01:09:03.040Z,1.08
2018-12-29T01:10:02.175Z,1.08
2018-12-29T01:11:01.822Z,1.06
2018-12-29T01:12:01.969Z,1.07
2018-12-29T01:13:01.775Z,1.05
2018-12-29T01:14:01.792Z,1.03
2018-12-29T01:15:02.065Z,1.03
2018-12-29T01:16:02.062Z,1.02
2018-12-29T01:17:01.847Z,1.04
2018-12-29T01:18:01.858Z,1.06
2018-12-29T01:19:01.842Z,1.05
2018-12-29T01:20:02.050Z,1.06
2018-12-29T01:21:01.706Z,1.04
2018-12-29T01:22:01.807Z,1.04
2018-12-29T01:23:01.746Z,1.04
2018-12-29T01:24:01.942Z,1.04
2018-12-29T01:25:02.403Z,1.06
2018-12-29T01:26:02.045Z,1.07
2018-12-29T01:27:01.944Z,1.06
2018-12-29T01:28:01.981Z,1.06
2018-12-29T01:29:01.927Z,1.04
2018-12-29T01:30:02.524Z,1.06
2018-12-29T01:31:01.703Z,1.05
2018-12-29T01:32:01.974Z,1.05
2018-12-29T01:33:01.733Z,1.04
2018-12-29T01:34:01.959Z,1.06
2018-12-29T01:35:02.901Z,1.04
2018-12-29T01:36:01.695Z,1.04
2018-12-29T01:37:02.251Z,1.04
2018-12-29T01:38:02.212Z,1.04
2018-12-29T01:39:02.021Z,1.06
2018-12-29T01:40:02.164Z,1.06
2018-12-29T01:41:01.722Z,1.03
2018-12-29T01:42:02.306Z,1.03
2018-12-29T01:43:01.959Z,1.05
2018-12-29T01:44:01.705Z,1.03
2018-12-29T01:45:01.724Z,1.02
2018-12-29T01:46:01.785Z,1.02
2018-12-29T01:47:01.789Z,1.03
2018-12-29T01:48:01.907Z,1.04
2018-12-29T01:49:02.028Z,1.04
2018-12-29T01:50:02.520Z,1.01
2018-12-29T01:51:01.710Z,0.94
2018-12-29T01:52:01.975Z,0.94
2018-12-29T01:53:02.122Z,0.95
2018-12-29T01:54:01.880Z,0.9
2018-12-29T01:55:01.892Z,0.93
2018-12-29T01:56:02.041Z,0.91
2018-12-29T01:57:02.012Z,0.94
2018-12-29T01:58:01.720Z,0.94
2018-12-29T01:59:01.679Z,0.95
2018-12-29T02:00:01.703Z,0.95
2018-12-29T02:01:01.733Z,0.95
2018-12-29T02:02:02.890Z,0.93
2018-12-29T02:03:01.665Z,0.91
2018-12-29T02:04:01.706Z,0.91
2018-12-29T02:05:02.051Z,0.95
2018-12-29T02:06:01.830Z,0.92
2018-12-29T02:07:01.663Z,0.94
2018-12-29T02:08:01.758Z,0.92
2018-12-29T02:09:01.901Z,0.9
2018-12-29T02:10:01.682Z,0.9
2018-12-29T02:11:01.780Z,0.87
2018-12-29T02:12:01.903Z,0.83
2018-12-29T02:13:01.775Z,0.84
2018-12-29T02:14:01.801Z,0.86
2018-12-29T02:15:01.866Z,0.85
2018-12-29T02:16:02.130Z,0.84
2018-12-29T02:17:01.789Z,0.87
2018-12-29T02:18:01.766Z,0.84
2018-12-29T02:19:01.621Z,0.85
2018-12-29T02:20:02.017Z,0.84
2018-12-29T02:21:01.666Z,0.84
2018-12-29T02:22:01.890Z,0.84
2018-12-29T02:23:01.703Z,0.81
2018-12-29T02:24:01.600Z,0.78
2018-12-29T02:25:01.703Z,0.78
2018-12-29T02:26:01.799Z,0.78
2018-12-29T02:27:01.681Z,0.78
2018-12-29T02:28:01.849Z,0.71
2018-12-29T02:29:01.622Z,0.72
2018-12-29T02:30:01.887Z,0.72
2018-12-29T02:31:02.241Z,0.75
2018-12-29T02:32:01.918Z,0.68
2018-12-29T02:33:01.706Z,0.72
2018-12-29T02:34:02.047Z,0.73
2018-12-29T02:35:01.766Z,0.74
2018-12-29T02:36:01.740Z,0.77
2018-12-29T02:37:01.713Z,0.77
2018-12-29T02:38:01.613Z,0.77
2018-12-29T02:39:02.195Z,0.77
2018-12-29T02:40:01.765Z,0.78
2018-12-29T02:41:02.170Z,0.77
2018-12-29T02:42:01.889Z,0.77
2018-12-29T02:43:01.796Z,0.78
2018-12-29T02:44:01.897Z,0.76
2018-12-29T02:45:01.657Z,0.77
2018-12-29T02:46:01.910Z,0.77
2018-12-29T02:47:01.922Z,0.77
2018-12-29T02:48:02.158Z,0.77
2018-12-29T02:49:02.030Z,0.78
2018-12-29T02:50:01.771Z,0.81
2018-12-29T02:51:01.570Z,0.79
2018-12-29T02:52:01.986Z,0.82
2018-12-29T02:53:01.794Z,0.78
2018-12-29T02:54:01.688Z,0.82
2018-12-29T02:55:01.958Z,0.8
2018-12-29T02:56:01.879Z,0.83
2018-12-29T02:57:01.876Z,0.83
2018-12-29T02:58:01.688Z,0.82
2018-12-29T02:59:01.902Z,0.83
2018-12-29T03:00:01.601Z,0.83
2018-12-29T03:01:01.910Z,0.83
2018-12-29T03:02:01.618Z,0.79
2018-12-29T03:03:01.639Z,0.83
2018-12-29T03:04:02.146Z,0.83
2018-12-29T03:05:01.812Z,0.84
2018-12-29T03:06:01.724Z,0.84
2018-12-29T03:07:02.109Z,0.84
2018-12-29T03:08:01.770Z,0.85
2018-12-29T03:09:01.566Z,0.86
2018-12-29T03:10:01.999Z,0.86
2018-12-29T03:11:02.092Z,0.86
2018-12-29T03:12:02.186Z,0.87
2018-12-29T03:13:01.706Z,0.87
2018-12-29T03:14:01.973Z,0.86
2018-12-29T03:15:01.699Z,0.85
2018-12-29T03:16:02.171Z,0.84
2018-12-29T03:17:01.797Z,0.85
2018-12-29T03:18:01.762Z,0.85
2018-12-29T03:19:01.856Z,0.85
2018-12-29T03:20:02.372Z,0.89
2018-12-29T03:21:01.652Z,0.87
2018-12-29T03:22:01.830Z,0.89
2018-12-29T03:23:01.782Z,0.89
2018-12-29T03:24:01.666Z,0.91
2018-12-29T03:25:01.661Z,0.91
2018-12-29T03:26:01.717Z,0.91
2018-12-29T03:27:01.680Z,0.93
2018-12-29T03:28:01.745Z,0.91
2018-12-29T03:29:01.730Z,0.92
2018-12-29T03:30:01.683Z,0.95
2018-12-29T03:31:01.734Z,0.96
2018-12-29T03:32:01.694Z,0.97
2018-12-29T03:33:01.765Z,0.97
2018-12-29T03:34:01.744Z,0.98
2018-12-29T03:35:02.500Z,0.97
2018-12-29T03:36:01.829Z,0.97
2018-12-29T03:37:01.525Z,0.96
2018-12-29T03:38:01.534Z,0.96
2018-12-29T03:39:01.541Z,0.98
2018-12-29T03:40:01.721Z,1
2018-12-29T03:41:01.984Z,0.99
2018-12-29T03:42:01.766Z,1
2018-12-29T03:43:01.607Z,0.97
2018-12-29T03:44:01.513Z,0.93
2018-12-29T03:45:01.910Z,0.9
2018-12-29T03:46:01.523Z,0.92
2018-12-29T03:47:01.662Z,0.94
2018-12-29T03:48:01.757Z,0.95
2018-12-29T03:49:01.550Z,0.97
2018-12-29T03:50:01.522Z,0.97
2018-12-29T03:51:01.971Z,0.97
2018-12-29T03:52:01.826Z,0.98
2018-12-29T03:53:02.369Z,0.98
2018-12-29T03:54:01.513Z,0.98
2018-12-29T03:55:01.862Z,0.98
2018-12-29T03:56:01.643Z,0.98
2018-12-29T03:57:01.472Z,1.01
2018-12-29T03:58:01.491Z,1.02
2018-12-29T03:59:01.566Z,1.05
2018-12-29T04:00:01.978Z,1.03
2018-12-29T04:01:01.654Z,1.06
2018-12-29T04:02:01.622Z,1.04
2018-12-29T04:03:01.514Z,1.05
2018-12-29T04:04:01.492Z,1.05
2018-12-29T04:05:01.780Z,1.03
2018-12-29T04:06:01.512Z,1.03
2018-12-29T04:07:01.468Z,1.02
2018-12-29T04:08:01.512Z,1.02
2018-12-29T04:09:01.588Z,1.02
2018-12-29T04:10:01.919Z,1.02
2018-12-29T04:11:01.518Z,1.02
2018-12-29T04:12:01.655Z,1.02
2018-12-29T04:13:01.582Z,1
2018-12-29T04:14:01.507Z,1.01
2018-12-29T04:15:01.558Z,1.01
2018-12-29T04:16:01.589Z,0.99
2018-12-29T04:17:01.525Z,1
2018-12-29T04:18:01.570Z,0.98
2018-12-29T04:19:02.334Z,1
2018-12-29T04:20:01.746Z,0.98
2018-12-29T04:21:01.772Z,1
2018-12-29T04:22:01.518Z,1
2018-12-29T04:23:01.505Z,0.99
2018-12-29T04:24:02.297Z,0.97
2018-12-29T04:25:01.754Z,0.96
2018-12-29T04:26:01.500Z,0.96
2018-12-29T04:27:01.666Z,0.95
2018-12-29T04:28:02.261Z,0.95
2018-12-29T04:29:01.619Z,0.94
2018-12-29T04:30:01.557Z,0.94
2018-12-29T04:31:01.729Z,0.95
2018-12-29T04:32:01.694Z,0.93
2018-12-29T04:33:01.847Z,0.96
2018-12-29T04:34:01.887Z,0.96
2018-12-29T04:35:01.980Z,0.96
2018-12-29T04:36:01.652Z,0.97
2018-12-29T04:37:01.756Z,0.97
2018-12-29T04:38:01.456Z,0.96
2018-12-29T04:39:01.424Z,0.97
2018-12-29T04:40:01.636Z,0.98
2018-12-29T04:41:01.765Z,0.97
2018-12-29T04:42:01.468Z,0.97
2018-12-29T04:43:01.606Z,0.98
2018-12-29T04:44:01.596Z,0.95
2018-12-29T04:45:01.741Z,0.85
2018-12-29T04:46:05.852Z,0.82
2018-12-29T04:47:01.693Z,0.79
2018-12-29T04:48:01.421Z,0.84
2018-12-29T04:49:01.585Z,0.84
2018-12-29T04:50:01.778Z,0.84
2018-12-29T04:51:01.446Z,0.84
2018-12-29T04:52:01.678Z,0.86
2018-12-29T04:53:01.425Z,0.89
2018-12-29T04:54:01.526Z,0.9
2018-12-29T04:55:01.775Z,0.9
2018-12-29T04:56:01.556Z,0.93
2018-12-29T04:57:01.782Z,0.93
2018-12-29T04:58:01.646Z,0.93
2018-12-29T04:59:01.720Z,0.93
2018-12-29T05:00:01.637Z,0.87
2018-12-29T05:01:01.549Z,0.9
2018-12-29T05:02:01.401Z,0.83
2018-12-29T05:03:02.216Z,0.88
2018-12-29T05:04:01.569Z,0.88
2018-12-29T05:05:01.476Z,0.9
2018-12-29T05:06:01.415Z,0.89
2018-12-29T05:07:01.504Z,0.87
2018-12-29T05:08:01.603Z,0.88
2018-12-29T05:09:01.552Z,0.87
2018-12-29T05:10:01.913Z,0.91
2018-12-29T05:11:01.478Z,0.9
2018-12-29T05:12:01.629Z,0.91
2018-12-29T05:13:01.680Z,0.93
2018-12-29T05:14:01.537Z,0.97
2018-12-29T05:15:01.635Z,0.9
2018-12-29T05:16:01.452Z,0.96
2018-12-29T05:17:01.593Z,0.96
2018-12-29T05:18:01.705Z,0.96
2018-12-29T05:19:01.687Z,0.96
2018-12-29T05:20:01.378Z,0.96
2018-12-29T05:21:01.551Z,0.97
2018-12-29T05:22:01.424Z,1.01
2018-12-29T05:23:01.482Z,1.01
2018-12-29T05:24:01.559Z,0.99
2018-12-29T05:25:01.759Z,0.96
2018-12-29T05:26:01.527Z,0.92
2018-12-29T05:27:01.940Z,0.9
2018-12-29T05:28:01.827Z,0.93
2018-12-29T05:29:01.578Z,0.91
2018-12-29T05:30:01.382Z,0.91
2018-12-29T05:31:01.783Z,0.96
2018-12-29T05:32:01.479Z,0.96
2018-12-29T05:33:01.662Z,0.98
2018-12-29T05:34:01.434Z,1
2018-12-29T05:35:01.403Z,0.96
2018-12-29T05:36:01.362Z,0.96
2018-12-29T05:37:01.383Z,0.96
2018-12-29T05:38:01.650Z,0.96
2018-12-29T05:39:01.648Z,0.96
2018-12-29T05:40:01.429Z,0.98
2018-12-29T05:41:01.425Z,0.98
2018-12-29T05:42:01.432Z,1.02
2018-12-29T05:43:01.357Z,1.03
2018-12-29T05:44:01.399Z,1.04
2018-12-29T05:45:01.372Z,1.05
2018-12-29T05:46:01.404Z,1.07
2018-12-29T05:47:01.408Z,1.06
2018-12-29T05:48:01.405Z,1.06
2018-12-29T05:49:01.377Z,1.06
2018-12-29T05:50:01.505Z,1
2018-12-29T05:51:01.394Z,1.01
2018-12-29T05:52:01.332Z,1.02
2018-12-29T05:53:01.383Z,1.04
2018-12-29T05:54:01.403Z,1.06
2018-12-29T05:55:01.517Z,1.04
2018-12-29T05:56:01.298Z,1.07
2018-12-29T05:57:01.357Z,1.07
2018-12-29T05:58:01.391Z,1.07
2018-12-29T05:59:01.611Z,1.06
2018-12-29T06:00:01.786Z,1.07
2018-12-29T06:01:02.135Z,1.06
2018-12-29T06:02:01.358Z,1.07
2018-12-29T06:03:01.601Z,1.04
2018-12-29T06:04:01.619Z,1.05
2018-12-29T06:05:01.620Z,1.06
2018-12-29T06:06:01.340Z,1.04
2018-12-29T06:07:01.340Z,1.07
2018-12-29T06:08:01.533Z,1.03
2018-12-29T06:09:01.386Z,1.06
2018-12-29T06:10:01.516Z,1.03
2018-12-29T06:11:01.677Z,1.04
2018-12-29T06:12:01.734Z,1.03
2018-12-29T06:13:01.314Z,1.03
2018-12-29T06:14:01.525Z,1.03
2018-12-29T06:15:01.485Z,1.03
2018-12-29T06:16:01.764Z,1
2018-12-29T06:17:01.398Z,1.02
2018-12-29T06:18:01.655Z,1.01
2018-12-29T06:19:01.618Z,1.01
2018-12-29T06:20:01.855Z,1.01
2018-12-29T06:21:01.610Z,1.01
2018-12-29T06:22:01.704Z,1.02
2018-12-29T06:23:01.731Z,1.02
2018-12-29T06:24:01.329Z,1.07
2018-12-29T06:25:01.685Z,1.07
2018-12-29T06:26:01.498Z,1.04
2018-12-29T06:27:01.728Z,1.07
2018-12-29T06:28:01.304Z,1.07
2018-12-29T06:29:01.652Z,1.07
2018-12-29T06:30:01.582Z,1.07
2018-12-29T06:31:01.360Z,1.04
2018-12-29T06:32:01.452Z,1.05
2018-12-29T06:33:01.292Z,1.06
2018-12-29T06:34:01.943Z,1.05
2018-12-29T06:35:01.459Z,1.06
2018-12-29T06:36:01.280Z,1.04
2018-12-29T06:37:01.487Z,1.07
2018-12-29T06:38:01.323Z,1.07
2018-12-29T06:39:01.540Z,1.07
2018-12-29T06:40:01.277Z,1.07
2018-12-29T06:41:01.302Z,1.07
2018-12-29T06:42:01.284Z,1.08
2018-12-29T06:43:01.731Z,1.08
2018-12-29T06:44:01.316Z,1.08
2018-12-29T06:45:01.595Z,1.11
2018-12-29T06:46:01.383Z,1.1
2018-12-29T06:47:01.301Z,1.1
2018-12-29T06:48:01.873Z,1.09
2018-12-29T06:49:01.833Z,1.08
2018-12-29T06:50:01.399Z,1.08
2018-12-29T06:51:01.633Z,1.09
2018-12-29T06:52:01.354Z,1.08
2018-12-29T06:53:01.420Z,1.09
2018-12-29T06:54:01.321Z,1.09
2018-12-29T06:55:01.578Z,1.08
2018-12-29T06:56:01.436Z,1.08
2018-12-29T06:57:01.402Z,1.09
2018-12-29T06:58:01.564Z,1.06
2018-12-29T06:59:02.024Z,1.05
2018-12-29T07:00:01.279Z,1.07
2018-12-29T07:01:01.545Z,1.07
2018-12-29T07:02:01.566Z,1.08
2018-12-29T07:03:01.654Z,1.06
2018-12-29T07:04:01.442Z,1.07
2018-12-29T07:05:01.403Z,1.08
2018-12-29T07:06:02.102Z,1.08
2018-12-29T07:07:01.531Z,1.07
2018-12-29T07:08:01.246Z,1.09
2018-12-29T07:09:01.616Z,1.08
2018-12-29T07:10:01.286Z,1.07
2018-12-29T07:11:01.547Z,1.08
2018-12-29T07:12:01.603Z,1.08
2018-12-29T07:13:01.591Z,1.07
2018-12-29T07:14:01.412Z,1.08
2018-12-29T07:15:01.353Z,1.09
2018-12-29T07:16:01.305Z,1.1
2018-12-29T07:17:01.243Z,1.1
2018-12-29T07:18:01.354Z,1.11
2018-12-29T07:19:01.335Z,1.12
2018-12-29T07:20:01.383Z,1.13
2018-12-29T07:21:01.311Z,1.13
2018-12-29T07:22:01.216Z,1.12
2018-12-29T07:23:01.500Z,1.1
2018-12-29T07:24:01.213Z,1.13
2018-12-29T07:25:01.257Z,1.13
2018-12-29T07:26:01.343Z,1.11
2018-12-29T07:27:01.234Z,1.14
2018-12-29T07:28:01.193Z,1.14
2018-12-29T07:29:01.430Z,1.14
2018-12-29T07:30:01.222Z,1.15
2018-12-29T07:31:01.297Z,1.14
2018-12-29T07:32:01.526Z,1.15
2018-12-29T07:33:01.462Z,1.14
2018-12-29T07:34:01.536Z,1.14
2018-12-29T07:35:01.206Z,1.13
2018-12-29T07:36:01.273Z,1.15
2018-12-29T07:37:01.346Z,1.14
2018-12-29T07:38:01.232Z,1.14
2018-12-29T07:39:01.541Z,1.14
2018-12-29T07:40:01.497Z,1.14
2018-12-29T07:41:01.335Z,1.14
2018-12-29T07:42:01.239Z,1.14
2018-12-29T07:43:02.069Z,1.14
2018-12-29T07:44:02.005Z,1.14
2018-12-29T07:45:01.240Z,1.15
2018-12-29T07:46:01.310Z,1.14
2018-12-29T07:47:01.781Z,1.15
2018-12-29T07:48:01.169Z,1.15
2018-12-29T07:49:01.998Z,1.13
2018-12-29T07:50:01.341Z,1.11
2018-12-29T07:51:01.206Z,1.14
2018-12-29T07:52:01.491Z,1.14
2018-12-29T07:53:01.386Z,1.15
2018-12-29T07:54:01.327Z,1.15
2018-12-29T07:55:01.330Z,1.16
2018-12-29T07:56:01.270Z,1.16
2018-12-29T07:57:01.238Z,1.18
2018-12-29T07:58:01.239Z,1.16
2018-12-29T07:59:00.969Z,1.17
2018-12-29T08:00:01.447Z,1.19
2018-12-29T08:01:01.290Z,1.2
2018-12-29T08:02:01.469Z,1.2
2018-12-29T08:03:01.611Z,1.2
2018-12-29T08:04:01.214Z,1.18
2018-12-29T08:05:01.521Z,1.21
2018-12-29T08:06:01.202Z,1.2
2018-12-29T08:07:01.366Z,1.21
2018-12-29T08:08:01.183Z,1.23
2018-12-29T08:09:01.198Z,1.23
2018-12-29T08:10:01.458Z,1.22
2018-12-29T08:11:01.279Z,1.24
2018-12-29T08:12:01.677Z,1.23
2018-12-29T08:13:01.670Z,1.25
2018-12-29T08:14:01.561Z,1.26
2018-12-29T08:15:01.495Z,1.26
2018-12-29T08:16:01.438Z,1.26
2018-12-29T08:17:01.427Z,1.28
2018-12-29T08:18:01.396Z,1.27
2018-12-29T08:19:01.160Z,1.29
2018-12-29T08:20:01.753Z,1.27
2018-12-29T08:21:02.050Z,1.27
2018-12-29T08:22:01.242Z,1.28
2018-12-29T08:23:01.245Z,1.29
2018-12-29T08:24:01.393Z,1.28
2018-12-29T08:25:01.378Z,1.27
2018-12-29T08:26:01.152Z,1.28
2018-12-29T08:27:01.684Z,1.3
2018-12-29T08:28:01.473Z,1.29
2018-12-29T08:29:01.339Z,1.31
2018-12-29T08:30:01.289Z,1.32
2018-12-29T08:31:01.457Z,1.33
2018-12-29T08:32:01.327Z,1.32
2018-12-29T08:33:01.364Z,1.32
2018-12-29T08:34:01.540Z,1.33
2018-12-29T08:35:01.473Z,1.33
2018-12-29T08:36:01.736Z,1.35
2018-12-29T08:37:01.120Z,1.38
2018-12-29T08:38:01.509Z,1.38
2018-12-29T08:39:01.642Z,1.37
2018-12-29T08:40:01.137Z,1.34
2018-12-29T08:41:01.230Z,1.37
2018-12-29T08:42:01.217Z,1.35
2018-12-29T08:43:01.161Z,1.35
2018-12-29T08:44:01.400Z,1.39
2018-12-29T08:45:01.288Z,1.38
2018-12-29T08:46:01.226Z,1.35
2018-12-29T08:47:05.204Z,1.38
2018-12-29T08:48:01.533Z,1.36
2018-12-29T08:49:01.171Z,1.38
2018-12-29T08:50:01.285Z,1.39
2018-12-29T08:51:01.571Z,1.37
2018-12-29T08:52:01.430Z,1.39
2018-12-29T08:53:01.158Z,1.39
2018-12-29T08:54:01.160Z,1.4
2018-12-29T08:55:01.220Z,1.4
2018-12-29T08:56:01.361Z,1.43
2018-12-29T08:57:01.188Z,1.43
2018-12-29T08:58:01.106Z,1.44
2018-12-29T08:59:01.245Z,1.42
2018-12-29T09:00:01.309Z,1.45
2018-12-29T09:01:01.066Z,1.43
2018-12-29T09:02:01.469Z,1.46
2018-12-29T09:03:01.296Z,1.46
2018-12-29T09:04:01.170Z,1.46
2018-12-29T09:05:01.305Z,1.46
2018-12-29T09:06:01.216Z,1.45
2018-12-29T09:07:01.152Z,1.47
2018-12-29T09:08:01.197Z,1.45
2018-12-29T09:09:01.040Z,1.46
2018-12-29T09:10:01.280Z,1.47
2018-12-29T09:11:01.051Z,1.47
2018-12-29T09:12:01.343Z,1.49
2018-12-29T09:13:01.417Z,1.48
2018-12-29T09:14:01.554Z,1.5
2018-12-29T09:15:01.742Z,1.5
2018-12-29T09:16:01.529Z,1.51
2018-12-29T09:17:01.242Z,1.51
2018-12-29T09:18:01.656Z,1.53
2018-12-29T09:19:01.260Z,1.53
2018-12-29T09:20:01.891Z,1.53
2018-12-29T09:21:01.303Z,1.55
2018-12-29T09:22:01.263Z,1.57
2018-12-29T09:23:01.701Z,1.57
2018-12-29T09:24:01.258Z,1.58
2018-12-29T09:25:01.212Z,1.59
2018-12-29T09:26:01.100Z,1.62
2018-12-29T09:27:01.181Z,1.65
2018-12-29T09:28:01.287Z,1.68
2018-12-29T09:29:01.491Z,1.69
2018-12-29T09:30:01.320Z,1.7
2018-12-29T09:31:01.261Z,1.71
2018-12-29T09:32:01.246Z,1.72
2018-12-29T09:33:01.885Z,1.74
2018-12-29T09:34:01.352Z,1.76
2018-12-29T09:35:01.424Z,1.77
2018-12-29T09:36:01.297Z,1.78
2018-12-29T09:37:01.233Z,1.81
2018-12-29T09:38:00.996Z,1.79
2018-12-29T09:39:01.150Z,1.77
2018-12-29T09:40:01.851Z,1.78
2018-12-29T09:41:01.415Z,1.81
2018-12-29T09:42:01.281Z,1.82
2018-12-29T09:43:01.215Z,1.84
2018-12-29T09:44:01.829Z,1.86
2018-12-29T09:45:01.339Z,1.84
2018-12-29T09:46:01.403Z,1.86
2018-12-29T09:47:01.195Z,1.86
2018-12-29T09:48:01.157Z,1.86
2018-12-29T09:49:02.085Z,1.88
2018-12-29T09:50:01.036Z,1.89
2018-12-29T09:51:01.126Z,1.88
2018-12-29T09:52:01.697Z,1.89
2018-12-29T09:53:04.251Z,1.92
2018-12-29T09:54:01.082Z,1.93
2018-12-29T09:55:01.070Z,1.94
2018-12-29T09:56:01.268Z,1.94
2018-12-29T09:57:01.311Z,1.94
2018-12-29T09:58:01.232Z,1.95
2018-12-29T09:59:01.003Z,1.97
2018-12-29T10:00:01.226Z,2
2018-12-29T10:01:01.368Z,2
2018-12-29T10:02:01.343Z,2.01
2018-12-29T10:03:01.433Z,2.02
2018-12-29T10:04:01.103Z,2.05
2018-12-29T10:05:01.825Z,2.02
2018-12-29T10:06:01.276Z,2.03
2018-12-29T10:07:01.325Z,2.04
2018-12-29T10:08:01.239Z,2.06
2018-12-29T10:09:01.194Z,2.06
2018-12-29T10:10:01.181Z,2.05
2018-12-29T10:11:01.333Z,2.04
2018-12-29T10:12:01.335Z,2.04
2018-12-29T10:13:01.046Z,2.02
2018-12-29T10:14:01.028Z,2.01
2018-12-29T10:15:01.132Z,2.03
2018-12-29T10:16:01.249Z,2.01
2018-12-29T10:17:01.814Z,2.01
2018-12-29T10:18:01.168Z,2.04
2018-12-29T10:19:01.312Z,2.02
2018-12-29T10:20:01.270Z,2.02
2018-12-29T10:21:01.106Z,2.02
2018-12-29T10:22:01.693Z,2.03
2018-12-29T10:23:01.307Z,2.03
2018-12-29T10:24:01.884Z,2.02
2018-12-29T10:25:01.552Z,2.02
2018-12-29T10:26:00.950Z,2.03
2018-12-29T10:27:01.239Z,2.06
2018-12-29T10:28:01.468Z,2.07
2018-12-29T10:29:01.279Z,2.07
2018-12-29T10:30:01.050Z,2.08
2018-12-29T10:31:02.271Z,2.11
2018-12-29T10:32:01.191Z,2.11
2018-12-29T10:33:01.279Z,2.09
2018-12-29T10:34:01.359Z,2.11
2018-12-29T10:35:00.916Z,2.12
2018-12-29T10:36:01.793Z,2.13
2018-12-29T10:37:01.054Z,2.13
2018-12-29T10:38:01.095Z,2.14
2018-12-29T10:39:01.377Z,2.14
2018-12-29T10:40:00.989Z,2.17
2018-12-29T10:41:01.424Z,2.19
2018-12-29T10:42:01.127Z,2.19
2018-12-29T10:43:00.990Z,2.18
2018-12-29T10:44:01.185Z,2.2
2018-12-29T10:45:01.516Z,2.22
2018-12-29T10:46:01.287Z,2.2
2018-12-29T10:47:01.139Z,2.23
2018-12-29T10:48:01.663Z,2.2
2018-12-29T10:49:01.376Z,2.22
2018-12-29T10:50:02.319Z,2.23
2018-12-29T10:51:00.961Z,2.23
2018-12-29T10:52:03.629Z,2.2
2018-12-29T10:53:01.323Z,2.22
2018-12-29T10:54:01.702Z,2.22
2018-12-29T10:55:00.931Z,2.24
2018-12-29T10:56:00.980Z,2.22
2018-12-29T10:57:01.294Z,2.24
2018-12-29T10:58:01.559Z,2.23
2018-12-29T10:59:01.141Z,2.25
2018-12-29T11:00:01.832Z,2.25
2018-12-29T11:01:01.172Z,2.26
2018-12-29T11:02:06.683Z,2.26
2018-12-29T11:03:01.359Z,2.26
2018-12-29T11:04:00.940Z,2.25
2018-12-29T11:05:01.035Z,2.25
2018-12-29T11:06:01.964Z,2.26
2018-12-29T11:07:00.971Z,2.27
2018-12-29T11:08:01.464Z,2.26
2018-12-29T11:09:01.079Z,2.29
2018-12-29T11:10:00.999Z,2.28
2018-12-29T11:11:01.182Z,2.3
2018-12-29T11:12:01.150Z,2.27
2018-12-29T11:13:01.222Z,2.3
2018-12-29T11:14:01.707Z,2.3
2018-12-29T11:15:01.066Z,2.3
2018-12-29T11:16:01.194Z,2.3
2018-12-29T11:17:04.431Z,2.28
2018-12-29T11:18:01.315Z,2.3
2018-12-29T11:19:02.117Z,2.27
2018-12-29T11:20:01.261Z,2.31
2018-12-29T11:21:02.858Z,2.29
2018-12-29T11:22:01.780Z,2.31
2018-12-29T11:23:01.716Z,2.31
2018-12-29T11:24:01.082Z,2.31
2018-12-29T11:25:01.339Z,2.32
2018-12-29T11:26:01.820Z,2.32
2018-12-29T11:27:01.254Z,2.31
2018-12-29T11:28:01.056Z,2.32
2018-12-29T11:29:00.916Z,2.32
2018-12-29T11:30:01.184Z,2.34
2018-12-29T11:31:01.435Z,2.33
2018-12-29T11:32:01.201Z,2.33
2018-12-29T11:33:01.253Z,2.34
2018-12-29T11:34:01.193Z,2.34
2018-12-29T11:35:00.987Z,2.34
2018-12-29T11:36:01.244Z,2.35
2018-12-29T11:37:01.269Z,2.33
2018-12-29T11:38:01.002Z,2.34
2018-12-29T11:39:01.236Z,2.33
2018-12-29T11:40:01.139Z,2.34
2018-12-29T11:41:01.128Z,2.34
2018-12-29T11:42:00.825Z,2.33
2018-12-29T11:43:01.071Z,2.3
2018-12-29T11:44:00.890Z,2.34
2018-12-29T11:45:01.156Z,2.34
2018-12-29T11:46:00.892Z,2.35
2018-12-29T11:47:00.879Z,2.35
2018-12-29T11:48:01.170Z,2.35
2018-12-29T11:49:02.390Z,2.36
2018-12-29T11:50:01.510Z,2.37
2018-12-29T11:51:03.230Z,2.38
2018-12-29T11:52:01.320Z,2.39
2018-12-29T11:53:00.918Z,2.38
2018-12-29T11:54:00.925Z,2.39
2018-12-29T11:55:01.527Z,2.39
2018-12-29T11:56:01.310Z,2.37
2018-12-29T11:57:01.062Z,2.37
2018-12-29T11:58:01.159Z,2.34
2018-12-29T11:59:01.323Z,2.36
2018-12-29T12:00:02.992Z,2.37
2018-12-29T12:01:00.972Z,2.37
2018-12-29T12:02:01.277Z,2.38
2018-12-29T12:03:00.952Z,2.38
2018-12-29T12:04:01.083Z,2.39
2018-12-29T12:05:01.103Z,2.42
2018-12-29T12:06:00.921Z,2.4
2018-12-29T12:07:01.003Z,2.4
2018-12-29T12:08:00.981Z,2.4
2018-12-29T12:09:02.772Z,2.4
2018-12-29T12:10:00.904Z,2.41
2018-12-29T12:11:00.921Z,2.39
2018-12-29T12:12:00.932Z,2.39
2018-12-29T12:13:01.724Z,2.39
2018-12-29T12:14:00.913Z,2.39
2018-12-29T12:15:01.362Z,2.39
2018-12-29T12:16:00.959Z,2.38
2018-12-29T12:17:01.714Z,2.38
2018-12-29T12:18:02.904Z,2.39
2018-12-29T12:19:00.941Z,2.38
2018-12-29T12:20:01.480Z,2.39
2018-12-29T12:21:01.236Z,2.42
2018-12-29T12:22:01.039Z,2.41
2018-12-29T12:23:01.110Z,2.43
2018-12-29T12:24:01.587Z,2.43
2018-12-29T12:25:01.095Z,2.45
2018-12-29T12:26:01.274Z,2.46
2018-12-29T12:27:01.080Z,2.46
2018-12-29T12:28:01.729Z,2.49
2018-12-29T12:29:03.707Z,2.47
2018-12-29T12:30:01.376Z,2.49
2018-12-29T12:31:01.383Z,2.45
2018-12-29T12:32:00.866Z,2.45
2018-12-29T12:33:01.582Z,2.47
2018-12-29T12:34:02.879Z,2.49
2018-12-29T12:35:01.005Z,2.47
2018-12-29T12:36:01.163Z,2.53
2018-12-29T12:37:01.162Z,2.5
2018-12-29T12:38:00.961Z,2.52
2018-12-29T12:39:03.860Z,2.55
2018-12-29T12:40:01.172Z,2.54
2018-12-29T12:41:00.971Z,2.52
2018-12-29T12:42:00.927Z,2.52
2018-12-29T12:43:00.909Z,2.53
2018-12-29T12:44:01.250Z,2.56
2018-12-29T12:45:01.062Z,2.56
2018-12-29T12:46:01.083Z,2.56
2018-12-29T12:47:01.064Z,2.56
2018-12-29T12:48:05.763Z,2.56
2018-12-29T12:49:01.068Z,2.53
2018-12-29T12:50:02.521Z,2.53
2018-12-29T12:51:01.321Z,2.53
2018-12-29T12:52:01.076Z,2.55
2018-12-29T12:53:01.063Z,2.54
2018-12-29T12:54:01.067Z,2.53
2018-12-29T12:55:00.901Z,2.56
2018-12-29T12:56:01.527Z,2.52
2018-12-29T12:57:03.596Z,2.53
2018-12-29T12:58:03.198Z,2.51
2018-12-29T12:59:02.411Z,2.52
2018-12-29T13:00:03.246Z,2.51
2018-12-29T13:01:03.148Z,2.54
2018-12-29T13:02:01.928Z,2.52
2018-12-29T13:03:01.093Z,2.53
2018-12-29T13:04:01.239Z,2.52
2018-12-29T13:05:01.222Z,2.55
2018-12-29T13:06:01.296Z,2.56
2018-12-29T13:07:00.863Z,2.57
2018-12-29T13:08:00.849Z,2.58
2018-12-29T13:09:01.290Z,2.59
2018-12-29T13:10:00.978Z,2.59
2018-12-29T13:11:01.015Z,2.59
2018-12-29T13:12:01.045Z,2.59
2018-12-29T13:13:00.784Z,2.61
2018-12-29T13:14:00.842Z,2.59
2018-12-29T13:15:01.155Z,2.61
2018-12-29T13:16:00.856Z,2.58
2018-12-29T13:17:01.031Z,2.61
2018-12-29T13:18:01.715Z,2.59
2018-12-29T13:19:00.939Z,2.61
2018-12-29T13:20:00.944Z,2.6
2018-12-29T13:21:00.598Z,2.6